Time;durP1;ratioP1;P1;durP2;ratioP2;P2;SDS_P1;SDS_P2;PMS_P1;PMS_P2;Temp;Humidity;BMP_temperature;BMP_pressure;BME280_temperature;BME280_humidity;BME280_pressure;Samples;Min_cycle;Max_cycle;Signal;HPM_P1;HPM_P2
2021/01/19 00:01:22;;;;;;;30.08;17.95;;;5.70;92.30;;;;;;5011025;28;20069;-55
2021/01/19 00:03:48;;;;;;;29.55;17.55;;;5.80;92.30;;;;;;4992881;28;20056;-56
2021/01/19 00:06:17;;;;;;;25.38;17.05;;;5.70;92.40;;;;;;4993560;28;20406;-55
2021/01/19 00:08:43;;;;;;;27.05;18.25;;;5.70;92.40;;;;;;5011058;28;20165;-58
2021/01/19 00:11:08;;;;;;;29.00;17.85;;;5.70;92.40;;;;;;5010519;28;20034;-58
2021/01/19 00:13:34;;;;;;;30.75;19.52;;;5.70;92.50;;;;;;5010162;28;20490;-58
2021/01/19 00:15:59;;;;;;;30.45;19.45;;;5.70;92.40;;;;;;5010785;28;20176;-59
2021/01/19 00:18:25;;;;;;;28.02;18.77;;;5.70;92.60;;;;;;5011028;28;20490;-58
2021/01/19 00:20:51;;;;;;;33.83;20.05;;;5.60;92.70;;;;;;5010768;28;20052;-59
2021/01/19 00:23:17;;;;;;;32.45;20.15;;;5.60;92.70;;;;;;5010298;28;20429;-59
2021/01/19 00:25:43;;;;;;;37.17;20.25;;;5.60;92.80;;;;;;5010461;28;20046;-59
2021/01/19 00:28:10;;;;;;;34.67;19.85;;;5.60;92.80;;;;;;5010765;28;20128;-59
2021/01/19 00:30:43;;;;;;;31.58;19.67;;;5.70;92.80;;;;;;5010451;28;20510;-58
2021/01/19 00:33:10;;;;;;;37.00;21.25;;;5.70;92.80;;;;;;5010432;28;20069;-59
2021/01/19 00:35:36;;;;;;;34.42;22.35;;;5.80;92.70;;;;;;5011112;28;20046;-59
2021/01/19 00:38:06;;;;;;;39.28;22.30;;;5.80;92.70;;;;;;5010533;28;20081;-59
2021/01/19 00:40:31;;;;;;;44.03;25.60;;;5.80;92.80;;;;;;5010535;28;20048;-59
2021/01/19 00:42:58;;;;;;;38.58;23.52;;;5.80;92.80;;;;;;5011400;28;20457;-59
2021/01/19 00:45:24;;;;;;;43.60;25.85;;;5.80;92.90;;;;;;5010343;28;20056;-59
2021/01/19 00:47:49;;;;;;;44.03;26.10;;;5.80;93.10;;;;;;5010893;28;20521;-59
2021/01/19 00:50:15;;;;;;;47.92;26.15;;;5.70;93.30;;;;;;5011593;28;20554;-59
2021/01/19 00:52:42;;;;;;;53.75;28.25;;;5.60;93.50;;;;;;5018254;28;20040;-59
2021/01/19 00:55:08;;;;;;;51.10;29.20;;;5.70;93.60;;;;;;5011577;28;20033;-59
2021/01/19 00:57:34;;;;;;;51.00;29.00;;;5.60;93.80;;;;;;5012720;28;20050;-59
2021/01/19 01:00:02;;;;;;;53.95;29.45;;;5.60;93.90;;;;;;4993995;28;20105;-59
2021/01/19 01:02:27;;;;;;;60.97;32.40;;;5.60;94.00;;;;;;4993238;28;20050;-60
2021/01/19 01:04:53;;;;;;;59.00;31.80;;;5.60;94.10;;;;;;5010623;28;20034;-59
2021/01/19 01:07:19;;;;;;;55.10;30.15;;;5.60;94.20;;;;;;5010464;28;20505;-59
2021/01/19 01:09:44;;;;;;;55.08;30.33;;;5.60;94.30;;;;;;5011041;28;20070;-59
2021/01/19 01:12:10;;;;;;;55.20;29.90;;;5.60;94.30;;;;;;5010275;28;20046;-56
2021/01/19 01:14:35;;;;;;;58.30;30.95;;;5.60;94.30;;;;;;5013398;28;20046;-57
2021/01/19 01:17:02;;;;;;;58.10;28.95;;;5.60;94.40;;;;;;5014811;28;20482;-56
2021/01/19 01:19:27;;;;;;;54.90;31.05;;;5.60;94.40;;;;;;5013852;28;20050;-57
2021/01/19 01:21:53;;;;;;;52.53;29.08;;;5.70;94.30;;;;;;5013482;28;20044;-57
2021/01/19 01:24:18;;;;;;;54.60;30.98;;;5.80;94.20;;;;;;5015362;28;20049;-56
2021/01/19 01:26:44;;;;;;;50.10;29.35;;;5.70;94.20;;;;;;5015872;28;20127;-57
2021/01/19 01:29:10;;;;;;;55.72;28.88;;;5.80;94.20;;;;;;5016174;28;20049;-56
2021/01/19 01:31:35;;;;;;;54.60;29.40;;;5.80;94.10;;;;;;5013947;28;20406;-58
2021/01/19 01:34:02;;;;;;;54.83;29.05;;;5.70;94.10;;;;;;5013739;28;20034;-57
2021/01/19 01:36:28;;;;;;;53.75;28.00;;;5.70;94.30;;;;;;5015800;28;20042;-58
2021/01/19 01:38:54;;;;;;;48.22;28.33;;;5.80;94.40;;;;;;5015179;28;20042;-56
2021/01/19 01:41:21;;;;;;;53.03;29.10;;;5.80;94.30;;;;;;5013610;28;20046;-56
2021/01/19 01:43:48;;;;;;;52.20;27.63;;;5.80;94.20;;;;;;5014652;28;20042;-58
2021/01/19 01:46:15;;;;;;;50.40;26.92;;;5.80;94.20;;;;;;5014185;28;20041;-58
2021/01/19 01:48:43;;;;;;;51.60;28.70;;;5.80;94.30;;;;;;5013910;28;20449;-57
2021/01/19 01:51:10;;;;;;;48.25;27.98;;;5.80;94.30;;;;;;5013683;28;20041;-57
2021/01/19 01:53:37;;;;;;;52.53;27.90;;;5.80;94.40;;;;;;5013536;28;20042;-56
2021/01/19 01:56:05;;;;;;;46.38;25.85;;;5.80;94.30;;;;;;5013428;28;20077;-54
2021/01/19 01:58:31;;;;;;;52.45;27.98;;;5.80;94.50;;;;;;5013968;28;20493;-57
2021/01/19 02:00:56;;;;;;;45.83;25.67;;;5.80;94.30;;;;;;5013545;28;20056;-58
2021/01/19 02:03:22;;;;;;;42.95;26.83;;;5.80;94.20;;;;;;5012964;28;20061;-55
2021/01/19 02:05:48;;;;;;;44.88;25.55;;;5.90;94.20;;;;;;5017243;28;20045;-58
2021/01/19 02:08:34;;;;;;;40.70;26.00;;;5.90;94.10;;;;;;4999193;28;20041;-58
2021/01/19 02:11:03;;;;;;;43.25;25.10;;;5.80;94.10;;;;;;5010856;28;20085;-57
2021/01/19 02:13:40;;;;;;;41.95;23.10;;;5.80;94.10;;;;;;5018228;28;20498;-56
2021/01/19 02:16:30;;;;;;;38.28;22.27;;;5.80;94.10;;;;;;5016994;28;20494;-57
2021/01/19 02:19:14;;;;;;;36.03;19.77;;;5.80;94.00;;;;;;5012465;28;20046;-58
2021/01/19 02:21:59;;;;;;;31.48;20.02;;;5.80;93.80;;;;;;5012198;28;20037;-58
2021/01/19 02:24:38;;;;;;;36.03;19.77;;;5.90;93.40;;;;;;5009615;28;20057;-57
2021/01/19 02:27:47;;;;;;;33.38;17.77;;;5.90;93.50;;;;;;5012761;28;20053;-57
2021/01/19 02:30:19;;;;;;;29.20;17.67;;;5.90;93.40;;;;;;5002774;28;20042;-56
2021/01/19 02:33:06;;;;;;;28.23;15.00;;;5.90;93.10;;;;;;5012585;28;20041;-57
2021/01/19 02:35:48;;;;;;;26.98;15.45;;;5.90;92.90;;;;;;5014835;28;20049;-57
2021/01/19 02:38:31;;;;;;;29.00;14.35;;;5.90;92.80;;;;;;5010831;28;20061;-57
2021/01/19 02:40:58;;;;;;;25.20;14.40;;;5.90;92.90;;;;;;5012391;28;20414;-54
2021/01/19 02:43:27;;;;;;;28.73;12.82;;;5.80;92.80;;;;;;5012446;28;20495;-55
2021/01/19 02:45:55;;;;;;;29.77;12.95;;;5.80;92.90;;;;;;5015140;28;20084;-57
2021/01/19 02:48:25;;;;;;;26.45;12.52;;;5.80;93.00;;;;;;4986687;28;20050;-57
2021/01/19 02:50:53;;;;;;;25.27;12.23;;;5.80;92.90;;;;;;5017073;28;20421;-57
2021/01/19 02:53:20;;;;;;;21.38;10.95;;;5.70;93.10;;;;;;4967355;28;20073;-59
2021/01/19 02:55:50;;;;;;;25.88;11.55;;;5.80;92.80;;;;;;5020584;28;20037;-55
2021/01/19 02:59:01;;;;;;;26.50;11.05;;;5.70;93.00;;;;;;5018394;28;20041;-57
2021/01/19 03:01:40;;;;;;;23.13;9.95;;;5.70;93.00;;;;;;5015648;28;20060;-56
2021/01/19 03:04:09;;;;;;;16.80;8.10;;;5.70;93.10;;;;;;5017631;28;20042;-56
2021/01/19 03:06:35;;;;;;;18.83;8.55;;;5.80;93.00;;;;;;5017174;28;20502;-57
2021/01/19 03:09:02;;;;;;;16.77;7.65;;;5.70;92.90;;;;;;5016956;28;20049;-57
2021/01/19 03:11:34;;;;;;;18.35;8.70;;;5.70;93.10;;;;;;5016029;28;20128;-57
2021/01/19 03:14:01;;;;;;;22.15;7.50;;;5.70;93.10;;;;;;5017509;28;20448;-57
2021/01/19 03:16:27;;;;;;;19.10;7.63;;;5.70;93.00;;;;;;5020125;28;20044;-57
2021/01/19 03:18:56;;;;;;;23.58;7.53;;;5.60;93.00;;;;;;5018363;28;20482;-56
2021/01/19 03:21:22;;;;;;;18.17;7.05;;;5.60;93.00;;;;;;4977548;28;20137;-57
2021/01/19 03:23:48;;;;;;;19.35;6.97;;;5.60;93.20;;;;;;5017736;28;20514;-55
2021/01/19 03:26:13;;;;;;;19.63;6.82;;;5.70;93.10;;;;;;5016311;28;20454;-59
2021/01/19 03:28:39;;;;;;;20.73;7.07;;;5.60;93.30;;;;;;5014408;28;20034;-59
2021/01/19 03:31:06;;;;;;;14.68;6.93;;;5.70;93.20;;;;;;5014612;28;20038;-59
2021/01/19 03:33:33;;;;;;;17.98;6.95;;;5.60;93.30;;;;;;5019177;28;20052;-59
2021/01/19 03:35:59;;;;;;;17.00;7.05;;;5.50;93.50;;;;;;5001687;28;20045;-59
2021/01/19 03:38:26;;;;;;;16.92;6.53;;;5.60;93.40;;;;;;4998451;28;20111;-59
2021/01/19 03:40:51;;;;;;;16.30;6.55;;;5.60;93.40;;;;;;5017864;28;20072;-59
2021/01/19 03:43:17;;;;;;;22.95;6.68;;;5.50;93.40;;;;;;4996466;28;20042;-55
2021/01/19 03:45:43;;;;;;;15.68;5.82;;;5.60;93.50;;;;;;5014975;28;20041;-57
2021/01/19 03:48:11;;;;;;;17.45;6.03;;;5.50;93.70;;;;;;5001720;28;20534;-58
2021/01/19 03:50:38;;;;;;;19.15;6.30;;;5.50;93.70;;;;;;4997663;28;20050;-59
2021/01/19 03:53:04;;;;;;;16.70;5.40;;;5.50;93.60;;;;;;4998304;28;20065;-58
2021/01/19 03:55:31;;;;;;;14.77;6.13;;;5.50;93.70;;;;;;4975476;28;20074;-55
2021/01/19 03:57:58;;;;;;;18.33;6.18;;;5.40;93.70;;;;;;5012980;28;20048;-57
2021/01/19 04:00:23;;;;;;;15.90;5.35;;;5.50;93.80;;;;;;5010857;28;20058;-56
2021/01/19 04:02:49;;;;;;;15.80;5.57;;;5.40;94.00;;;;;;5012023;28;20077;-55
2021/01/19 04:05:15;;;;;;;19.30;5.75;;;5.50;93.60;;;;;;4976988;28;20077;-59
2021/01/19 04:07:42;;;;;;;17.15;5.05;;;5.50;93.70;;;;;;5011816;28;20089;-58
2021/01/19 04:10:13;;;;;;;17.40;5.85;;;5.50;93.50;;;;;;5011624;28;20029;-55
2021/01/19 04:12:40;;;;;;;18.00;6.25;;;5.50;93.50;;;;;;5007544;28;20051;-60
2021/01/19 04:15:07;;;;;;;13.82;4.72;;;5.40;93.50;;;;;;5011592;28;20421;-57
2021/01/19 04:17:33;;;;;;;12.73;5.43;;;5.40;93.60;;;;;;5017467;28;20045;-58
2021/01/19 04:19:59;;;;;;;15.93;5.28;;;5.50;93.60;;;;;;5001728;28;20418;-58
2021/01/19 04:22:26;;;;;;;17.30;6.15;;;5.50;93.40;;;;;;4999726;28;20057;-58
2021/01/19 04:24:53;;;;;;;17.05;4.82;;;5.50;93.70;;;;;;4989633;28;20050;-58
2021/01/19 04:27:20;;;;;;;12.68;4.97;;;5.40;93.70;;;;;;5024078;28;20033;-58
2021/01/19 04:29:46;;;;;;;21.75;6.22;;;5.50;93.50;;;;;;4997787;28;20073;-58
2021/01/19 04:32:12;;;;;;;20.27;5.30;;;5.50;93.60;;;;;;5013289;28;20037;-58
2021/01/19 04:34:38;;;;;;;16.38;5.22;;;5.40;93.60;;;;;;5014562;28;20045;-57
2021/01/19 04:37:03;;;;;;;17.90;6.00;;;5.40;93.70;;;;;;5017973;28;20053;-57
2021/01/19 04:39:30;;;;;;;13.63;4.57;;;5.40;93.50;;;;;;5001666;28;20041;-58
2021/01/19 04:41:56;;;;;;;13.05;5.20;;;5.40;93.60;;;;;;4997601;28;20042;-58
2021/01/19 04:44:24;;;;;;;16.73;5.45;;;5.40;93.80;;;;;;4986394;28;20049;-57
2021/01/19 04:46:50;;;;;;;10.25;4.70;;;5.40;93.80;;;;;;5012247;28;20049;-58
2021/01/19 04:49:17;;;;;;;13.00;5.45;;;5.30;93.80;;;;;;5018329;28;20181;-57
2021/01/19 04:51:46;;;;;;;16.88;5.82;;;5.40;93.70;;;;;;5010829;28;20046;-57
2021/01/19 04:54:17;;;;;;;12.88;5.78;;;5.30;93.90;;;;;;5010705;28;20036;-57
2021/01/19 04:57:06;;;;;;;15.32;5.82;;;5.30;93.90;;;;;;5016983;28;20037;-58
2021/01/19 04:59:38;;;;;;;11.15;5.13;;;5.20;94.10;;;;;;5012681;28;20065;-58
2021/01/19 05:02:15;;;;;;;14.35;5.85;;;5.20;94.10;;;;;;5008880;28;20041;-57
2021/01/19 05:04:51;;;;;;;11.27;6.03;;;5.20;94.10;;;;;;5010544;28;20477;-58
2021/01/19 05:07:30;;;;;;;14.32;6.68;;;5.20;94.10;;;;;;5010340;28;20120;-58
2021/01/19 05:10:05;;;;;;;11.80;6.80;;;5.20;94.10;;;;;;5009937;28;20375;-58
2021/01/19 05:12:42;;;;;;;15.13;6.13;;;5.20;94.10;;;;;;5010396;28;20046;-58
2021/01/19 05:15:13;;;;;;;14.50;6.63;;;5.20;94.20;;;;;;5010077;28;20147;-58
2021/01/19 05:17:40;;;;;;;13.95;6.70;;;5.20;94.50;;;;;;5010672;28;20414;-58
2021/01/19 05:20:08;;;;;;;14.40;7.40;;;5.20;94.10;;;;;;5007970;28;20494;-58
2021/01/19 05:22:34;;;;;;;12.40;6.80;;;5.20;94.30;;;;;;5010018;28;20463;-58
2021/01/19 05:24:59;;;;;;;16.20;7.65;;;5.20;94.10;;;;;;5010412;28;20049;-58
2021/01/19 05:27:26;;;;;;;17.40;7.20;;;5.20;94.20;;;;;;5011302;28;20475;-57
2021/01/19 05:30:04;;;;;;;12.85;7.05;;;5.20;94.10;;;;;;5012245;28;20466;-58
2021/01/19 05:32:40;;;;;;;15.52;7.53;;;5.20;94.10;;;;;;5016433;28;20560;-57
2021/01/19 05:35:16;;;;;;;12.77;7.40;;;5.20;94.30;;;;;;5012299;28;20041;-56
2021/01/19 05:37:54;;;;;;;15.88;7.78;;;5.20;94.50;;;;;;5009456;28;20053;-57
2021/01/19 05:40:20;;;;;;;11.45;7.68;;;5.10;94.50;;;;;;5007394;28;20069;-56
2021/01/19 05:42:46;;;;;;;14.57;7.32;;;5.10;94.60;;;;;;5016534;28;20069;-57
2021/01/19 05:45:12;;;;;;;12.38;6.93;;;5.10;94.70;;;;;;5010591;28;20084;-59
2021/01/19 05:47:40;;;;;;;14.80;7.25;;;5.20;94.60;;;;;;4996974;28;20084;-57
2021/01/19 05:50:10;;;;;;;12.27;6.78;;;5.20;94.60;;;;;;4965868;28;20069;-58
2021/01/19 05:52:37;;;;;;;15.82;7.65;;;5.20;94.70;;;;;;4995780;28;20057;-57
2021/01/19 05:55:03;;;;;;;15.95;7.75;;;5.20;94.60;;;;;;5017347;28;20042;-57
2021/01/19 05:57:31;;;;;;;14.70;7.43;;;5.30;94.40;;;;;;5023599;28;20498;-57
2021/01/19 06:00:05;;;;;;;12.48;6.88;;;5.30;94.40;;;;;;5011865;28;20057;-57
2021/01/19 06:02:58;;;;;;;15.75;7.68;;;5.30;94.30;;;;;;4999204;28;20061;-57
2021/01/19 06:05:31;;;;;;;12.52;6.05;;;5.30;94.60;;;;;;4995059;28;20128;-58
2021/01/19 06:08:01;;;;;;;12.32;7.00;;;5.30;94.60;;;;;;4998197;28;20152;-58
2021/01/19 06:10:27;;;;;;;17.67;7.35;;;5.20;94.70;;;;;;4998377;28;20060;-58
2021/01/19 06:12:53;;;;;;;13.95;6.95;;;5.20;94.70;;;;;;5014488;28;20046;-57
2021/01/19 06:15:27;;;;;;;12.38;7.05;;;5.20;94.70;;;;;;5015484;28;20076;-57
2021/01/19 06:17:53;;;;;;;11.82;7.13;;;5.20;94.60;;;;;;5016436;28;20061;-57
2021/01/19 06:20:19;;;;;;;11.57;6.60;;;5.20;94.60;;;;;;4999703;28;20470;-57
2021/01/19 06:22:45;;;;;;;12.35;7.35;;;5.20;94.70;;;;;;5014279;28;20038;-57
2021/01/19 06:25:14;;;;;;;10.45;7.00;;;5.20;94.70;;;;;;4999188;28;20132;-58
2021/01/19 06:27:40;;;;;;;11.90;6.53;;;5.20;94.70;;;;;;4998943;28;20141;-57
2021/01/19 06:30:11;;;;;;;10.80;6.68;;;5.20;94.80;;;;;;5016821;28;20042;-60
2021/01/19 06:32:47;;;;;;;12.82;6.43;;;5.30;94.70;;;;;;5011597;28;20046;-59
2021/01/19 06:35:18;;;;;;;9.50;6.28;;;5.30;94.80;;;;;;5015661;28;20387;-59
2021/01/19 06:37:45;;;;;;;11.30;6.20;;;5.30;94.80;;;;;;5020446;28;20042;-59
2021/01/19 06:40:13;;;;;;;9.15;6.20;;;5.30;94.80;;;;;;5012201;28;20433;-59
2021/01/19 06:42:40;;;;;;;11.05;6.35;;;5.30;94.80;;;;;;5012357;28;20049;-60
2021/01/19 06:45:08;;;;;;;9.65;6.07;;;5.40;94.80;;;;;;5010899;28;20140;-60
2021/01/19 06:47:47;;;;;;;8.65;5.60;;;5.40;94.80;;;;;;5012394;28;20069;-60
2021/01/19 06:50:13;;;;;;;8.88;5.60;;;5.50;94.70;;;;;;5016997;28;20057;-60
2021/01/19 06:52:41;;;;;;;8.52;5.32;;;5.50;94.50;;;;;;5012325;28;20046;-59
2021/01/19 06:55:32;;;;;;;9.25;5.50;;;5.50;94.70;;;;;;5008793;28;20041;-58
2021/01/19 06:58:37;;;;;;;8.85;5.55;;;5.50;94.80;;;;;;5009566;28;20126;-59
2021/01/19 07:01:11;;;;;;;9.40;6.05;;;5.60;94.60;;;;;;4998854;28;20559;-60
2021/01/19 07:03:37;;;;;;;10.65;6.03;;;5.60;94.70;;;;;;4994209;28;20042;-60
2021/01/19 07:06:07;;;;;;;7.65;5.38;;;5.50;94.70;;;;;;5012951;28;20045;-59
2021/01/19 07:08:57;;;;;;;6.88;4.85;;;5.50;94.70;;;;;;5017353;28;20034;-58
2021/01/19 07:11:38;;;;;;;8.10;5.20;;;5.50;94.90;;;;;;4991932;28;20049;-59
2021/01/19 07:14:12;;;;;;;7.88;5.03;;;5.50;94.80;;;;;;5018556;28;20132;-60
2021/01/19 07:16:56;;;;;;;9.45;5.47;;;5.50;94.80;;;;;;5015739;28;20057;-60
2021/01/19 07:19:44;;;;;;;6.15;4.25;;;5.60;94.80;;;;;;5017077;28;20045;-60
2021/01/19 07:22:18;;;;;;;8.15;4.70;;;5.60;94.70;;;;;;5011397;28;20115;-59
2021/01/19 07:24:47;;;;;;;6.80;4.72;;;5.50;94.90;;;;;;5016138;28;20421;-59
2021/01/19 07:27:18;;;;;;;7.70;4.65;;;5.50;94.90;;;;;;5008802;28;20096;-60
2021/01/19 07:29:45;;;;;;;7.93;4.85;;;5.60;94.90;;;;;;5018811;28;20038;-60
2021/01/19 07:32:19;;;;;;;7.10;5.07;;;5.70;94.70;;;;;;5019069;28;20116;-60
2021/01/19 07:34:45;;;;;;;7.72;5.00;;;5.60;94.70;;;;;;5016745;28;20037;-60
2021/01/19 07:37:10;;;;;;;8.95;5.18;;;5.60;94.80;;;;;;5013987;28;20111;-60
2021/01/19 07:39:37;;;;;;;7.65;4.95;;;5.60;94.90;;;;;;5016735;28;20491;-59
2021/01/19 07:42:09;;;;;;;7.18;4.95;;;5.70;94.80;;;;;;5025184;28;20042;-59
2021/01/19 07:44:35;;;;;;;7.32;4.57;;;5.70;94.70;;;;;;5011018;28;20387;-60
2021/01/19 07:47:15;;;;;;;7.22;5.18;;;5.80;94.50;;;;;;5013461;28;20104;-60
2021/01/19 07:49:42;;;;;;;7.85;5.47;;;5.80;94.60;;;;;;5001909;28;20447;-60
2021/01/19 07:52:13;;;;;;;7.55;5.40;;;5.60;94.80;;;;;;5018605;28;20053;-61
2021/01/19 07:54:39;;;;;;;6.78;4.78;;;5.60;94.70;;;;;;5013714;28;20049;-58
2021/01/19 07:57:16;;;;;;;7.65;5.10;;;5.80;94.80;;;;;;5017519;28;20046;-59
2021/01/19 07:59:43;;;;;;;7.93;5.28;;;5.80;94.60;;;;;;5016184;28;20030;-60
2021/01/19 08:02:20;;;;;;;7.15;4.70;;;5.80;94.80;;;;;;4996794;28;20068;-60
2021/01/19 08:04:45;;;;;;;8.10;5.30;;;5.80;95.10;;;;;;4997647;28;20498;-59
2021/01/19 08:07:19;;;;;;;8.75;5.40;;;5.90;94.80;;;;;;4996769;28;20088;-58
2021/01/19 08:09:45;;;;;;;8.25;4.93;;;5.80;94.70;;;;;;5012553;28;20513;-58
2021/01/19 08:12:14;;;;;;;8.05;5.35;;;5.80;94.90;;;;;;5014722;28;20049;-58
2021/01/19 08:14:45;;;;;;;8.07;4.93;;;5.80;94.70;;;;;;4994158;28;20096;-59
2021/01/19 08:17:12;;;;;;;6.95;4.93;;;5.80;94.70;;;;;;4993320;28;20403;-58
2021/01/19 08:19:44;;;;;;;6.97;4.43;;;5.80;94.90;;;;;;5008706;28;20064;-59
2021/01/19 08:22:11;;;;;;;7.68;4.80;;;5.80;94.90;;;;;;5012555;28;20050;-59
2021/01/19 08:24:40;;;;;;;8.57;5.72;;;5.90;94.70;;;;;;5010108;28;20405;-59
2021/01/19 08:27:06;;;;;;;6.82;4.93;;;5.90;94.50;;;;;;5009126;28;20100;-59
2021/01/19 08:29:31;;;;;;;10.00;5.65;;;5.90;94.70;;;;;;5012997;28;20042;-58
2021/01/19 08:32:01;;;;;;;8.02;5.60;;;5.90;94.80;;;;;;5016446;28;20125;-58
2021/01/19 08:34:28;;;;;;;7.32;4.93;;;5.80;94.80;;;;;;5012944;28;20034;-59
2021/01/19 08:36:56;;;;;;;7.80;5.50;;;5.80;94.90;;;;;;5016415;28;20045;-58
2021/01/19 08:39:23;;;;;;;6.38;4.43;;;5.90;94.90;;;;;;5011674;28;20042;-59
2021/01/19 08:41:51;;;;;;;7.32;5.03;;;5.90;95.00;;;;;;5014455;28;20030;-59
2021/01/19 08:44:17;;;;;;;7.88;5.30;;;5.90;95.00;;;;;;5010261;28;20082;-58
2021/01/19 08:46:44;;;;;;;7.57;5.07;;;5.90;94.90;;;;;;5013245;28;20053;-58
2021/01/19 08:49:11;;;;;;;8.18;5.07;;;5.90;95.00;;;;;;5013552;28;20378;-58
2021/01/19 08:51:42;;;;;;;7.95;5.72;;;5.90;95.10;;;;;;4995017;28;20108;-58
2021/01/19 08:54:09;;;;;;;7.22;5.20;;;6.00;95.10;;;;;;5011217;28;20095;-59
2021/01/19 08:56:40;;;;;;;8.05;5.07;;;6.00;95.20;;;;;;4994547;28;20137;-59
2021/01/19 08:59:05;;;;;;;8.20;5.32;;;6.10;95.00;;;;;;5012151;28;20558;-58
2021/01/19 09:01:31;;;;;;;8.13;5.28;;;6.10;95.00;;;;;;5009370;28;20046;-59
2021/01/19 09:04:01;;;;;;;9.80;4.75;;;6.00;95.10;;;;;;5011983;28;20034;-58
2021/01/19 09:06:28;;;;;;;8.43;5.10;;;6.10;95.20;;;;;;5009328;28;20046;-58
2021/01/19 09:08:56;;;;;;;8.52;5.22;;;6.10;95.20;;;;;;5014033;28;20056;-59
2021/01/19 09:11:32;;;;;;;7.07;4.97;;;6.10;95.20;;;;;;5013287;28;20325;-58
2021/01/19 09:14:08;;;;;;;5.82;4.32;;;6.10;95.40;;;;;;5012681;28;20052;-58
2021/01/19 09:16:38;;;;;;;7.15;4.32;;;6.10;95.30;;;;;;5013866;28;20042;-57
2021/01/19 09:19:09;;;;;;;6.43;4.80;;;6.10;95.40;;;;;;5009683;28;20425;-59
2021/01/19 09:21:38;;;;;;;6.57;4.57;;;6.20;95.40;;;;;;5010285;28;20469;-58
2021/01/19 09:24:12;;;;;;;7.10;4.85;;;6.20;95.40;;;;;;5007585;28;20092;-58
2021/01/19 09:26:46;;;;;;;6.45;4.65;;;6.30;95.40;;;;;;5013156;28;20120;-58
2021/01/19 09:29:11;;;;;;;6.85;4.60;;;6.30;95.40;;;;;;5019351;28;20064;-58
2021/01/19 09:31:37;;;;;;;7.55;5.43;;;6.40;95.40;;;;;;5022097;28;20055;-59
2021/01/19 09:34:03;;;;;;;7.75;4.75;;;6.40;95.40;;;;;;5019740;28;20038;-58
2021/01/19 09:36:29;;;;;;;7.15;4.53;;;6.40;95.50;;;;;;5018262;28;20429;-59
2021/01/19 09:38:58;;;;;;;6.70;4.75;;;6.40;95.60;;;;;;5019711;28;20814;-58
2021/01/19 09:41:26;;;;;;;7.05;4.75;;;6.50;95.60;;;;;;4996548;28;20049;-56
2021/01/19 09:43:56;;;;;;;9.95;5.25;;;6.40;95.60;;;;;;4997585;28;20577;-61
2021/01/19 09:46:25;;;;;;;6.78;4.88;;;6.50;95.60;;;;;;4986363;23;20346;-60
2021/01/19 09:48:55;;;;;;;8.20;5.28;;;6.50;95.60;;;;;;4996621;28;20493;-55
2021/01/19 09:51:29;;;;;;;8.32;5.03;;;6.60;95.70;;;;;;4996117;28;20082;-59
2021/01/19 09:53:55;;;;;;;7.13;4.90;;;6.60;95.70;;;;;;4993847;28;20039;-59
2021/01/19 09:56:22;;;;;;;7.50;5.18;;;6.60;95.80;;;;;;4992628;28;20058;-59
2021/01/19 09:58:48;;;;;;;7.95;5.30;;;6.70;95.80;;;;;;4994734;28;20566;-59
2021/01/19 10:01:24;;;;;;;5.55;4.07;;;6.80;95.80;;;;;;4994720;28;20030;-59
2021/01/19 10:03:50;;;;;;;6.97;4.93;;;6.80;95.90;;;;;;4988496;28;20437;-59
2021/01/19 10:06:24;;;;;;;8.60;5.18;;;6.90;96.10;;;;;;4992989;28;21457;-58
2021/01/19 10:08:52;;;;;;;7.88;4.40;;;6.90;95.90;;;;;;4993775;28;20062;-60
2021/01/19 10:11:29;;;;;;;7.10;4.72;;;6.90;95.90;;;;;;4996562;28;20042;-59
2021/01/19 10:13:55;;;;;;;7.95;4.22;;;7.10;96.00;;;;;;4994606;28;20129;-59
2021/01/19 10:16:27;;;;;;;6.20;4.25;;;7.20;96.00;;;;;;5003450;28;20129;-59
2021/01/19 10:18:53;;;;;;;5.85;3.42;;;7.20;96.10;;;;;;4995733;28;20042;-60
2021/01/19 10:21:31;;;;;;;8.18;3.80;;;7.20;96.20;;;;;;4995826;28;20049;-60
2021/01/19 10:23:57;;;;;;;5.72;3.55;;;7.30;96.20;;;;;;5002226;28;20482;-58
2021/01/19 10:26:29;;;;;;;6.05;3.05;;;7.30;96.30;;;;;;4991121;28;20101;-58
2021/01/19 10:28:57;;;;;;;4.35;2.95;;;7.40;96.10;;;;;;4995276;28;20057;-58
2021/01/19 10:31:27;;;;;;;4.00;3.00;;;7.50;96.10;;;;;;4993160;28;20061;-58
2021/01/19 10:34:04;;;;;;;4.40;3.08;;;7.50;96.10;;;;;;4992527;28;20050;-58
2021/01/19 10:36:37;;;;;;;4.70;2.78;;;7.50;96.10;;;;;;4993068;28;20484;-58
2021/01/19 10:39:07;;;;;;;5.00;3.10;;;7.60;96.20;;;;;;4992177;28;20104;-59
2021/01/19 10:41:33;;;;;;;4.00;2.75;;;7.60;96.20;;;;;;4988135;28;20046;-60
2021/01/19 10:44:00;;;;;;;4.40;3.10;;;7.60;96.30;;;;;;4988551;28;20038;-58
2021/01/19 10:46:29;;;;;;;4.63;3.42;;;7.60;96.40;;;;;;4991137;28;20053;-57
2021/01/19 10:49:15;;;;;;;4.00;2.80;;;7.70;96.20;;;;;;4992004;28;20050;-58
2021/01/19 10:51:42;;;;;;;3.85;2.90;;;7.70;96.20;;;;;;4984970;28;20056;-58
2021/01/19 10:54:13;;;;;;;4.63;3.25;;;7.80;96.20;;;;;;4986008;28;20042;-58
2021/01/19 10:56:42;;;;;;;4.93;3.42;;;7.80;96.10;;;;;;4990756;28;20038;-58
2021/01/19 10:59:08;;;;;;;5.38;3.53;;;7.80;96.00;;;;;;4990375;28;20070;-58
2021/01/19 11:01:37;;;;;;;5.75;3.33;;;7.90;96.10;;;;;;4991458;28;20044;-59
2021/01/19 11:04:04;;;;;;;8.30;4.40;;;7.90;96.20;;;;;;4989097;28;20145;-59
2021/01/19 11:06:32;;;;;;;7.28;4.55;;;7.80;96.40;;;;;;4990721;28;20471;-58
2021/01/19 11:08:58;;;;;;;9.77;4.35;;;7.90;96.30;;;;;;4990108;28;20042;-59
2021/01/19 11:11:24;;;;;;;7.97;5.07;;;7.90;96.20;;;;;;4991246;28;20105;-58
2021/01/19 11:13:49;;;;;;;9.57;4.82;;;7.90;96.30;;;;;;4991627;28;20046;-58
2021/01/19 11:16:15;;;;;;;7.30;5.32;;;7.90;96.20;;;;;;4989510;28;20644;-58
2021/01/19 11:18:40;;;;;;;10.93;5.35;;;8.00;96.30;;;;;;4992524;28;20042;-59
2021/01/19 11:21:06;;;;;;;8.95;5.63;;;8.00;96.30;;;;;;4993455;28;20050;-59
2021/01/19 11:23:32;;;;;;;11.52;6.10;;;8.00;96.40;;;;;;4992896;28;20054;-58
2021/01/19 11:25:58;;;;;;;13.30;5.97;;;8.00;96.30;;;;;;4998570;28;20069;-60
2021/01/19 11:28:24;;;;;;;11.20;5.75;;;8.00;96.30;;;;;;4997760;28;20050;-61
2021/01/19 11:30:51;;;;;;;13.50;7.20;;;8.00;96.50;;;;;;4999348;28;20495;-58
2021/01/19 11:33:17;;;;;;;15.82;7.18;;;8.00;96.70;;;;;;4996758;28;20106;-58
2021/01/19 11:35:43;;;;;;;19.13;7.68;;;8.00;96.70;;;;;;4989251;28;20056;-54
2021/01/19 11:38:09;;;;;;;21.42;7.55;;;8.10;96.60;;;;;;4991862;28;20042;-61
2021/01/19 11:40:35;;;;;;;22.55;7.53;;;8.10;96.70;;;;;;4991935;28;20681;-56
2021/01/19 11:43:00;;;;;;;21.40;8.20;;;8.20;96.90;;;;;;4992658;28;20122;-60
2021/01/19 11:45:27;;;;;;;28.30;7.22;;;8.30;96.80;;;;;;4992146;28;20133;-59
2021/01/19 11:47:54;;;;;;;20.65;6.82;;;8.30;96.80;;;;;;4993094;28;20535;-59
2021/01/19 11:50:20;;;;;;;29.75;6.10;;;8.50;96.90;;;;;;4997728;28;20046;-58
2021/01/19 11:52:46;;;;;;;22.38;6.13;;;8.50;96.90;;;;;;4993570;28;20042;-59
2021/01/19 11:55:12;;;;;;;22.17;4.72;;;8.60;96.80;;;;;;4990312;28;20052;-58
2021/01/19 11:57:38;;;;;;;17.77;4.78;;;8.70;96.80;;;;;;4988370;28;20105;-59
2021/01/19 12:00:10;;;;;;;22.98;3.92;;;8.70;96.50;;;;;;4990974;28;20034;-57
2021/01/19 12:02:36;;;;;;;17.70;3.80;;;8.90;96.40;;;;;;4986343;28;20038;-58
2021/01/19 12:05:02;;;;;;;17.40;4.15;;;8.90;96.30;;;;;;4990019;28;20030;-58
2021/01/19 12:07:28;;;;;;;23.13;3.67;;;9.00;96.20;;;;;;4989701;28;20033;-58
2021/01/19 12:09:54;;;;;;;19.70;4.35;;;9.00;96.10;;;;;;4992267;28;20121;-59
2021/01/19 12:12:19;;;;;;;19.48;3.55;;;9.00;96.00;;;;;;4989943;28;20042;-58
2021/01/19 12:14:45;;;;;;;14.95;3.22;;;9.00;96.00;;;;;;4992291;28;20125;-59
2021/01/19 12:17:12;;;;;;;21.25;3.47;;;9.00;96.00;;;;;;4991400;28;20074;-58
2021/01/19 12:19:39;;;;;;;18.52;3.67;;;9.00;96.00;;;;;;4988272;28;20050;-58
2021/01/19 12:22:04;;;;;;;27.42;3.58;;;9.10;95.90;;;;;;4990854;28;20137;-58
2021/01/19 12:24:30;;;;;;;16.10;3.05;;;9.10;95.80;;;;;;4986181;28;20141;-60
2021/01/19 12:26:57;;;;;;;16.30;2.80;;;9.10;95.80;;;;;;4988887;28;20506;-60
2021/01/19 12:29:25;;;;;;;19.85;2.72;;;9.10;95.80;;;;;;4990930;28;20634;-59
2021/01/19 12:31:51;;;;;;;11.98;2.47;;;9.10;95.70;;;;;;5001173;28;20069;-58
2021/01/19 12:34:19;;;;;;;13.43;2.22;;;9.10;95.80;;;;;;4996851;28;20044;-60
2021/01/19 12:36:48;;;;;;;14.52;2.20;;;9.10;95.60;;;;;;4994291;28;20069;-60
2021/01/19 12:39:14;;;;;;;14.30;2.40;;;9.10;95.60;;;;;;4989533;28;20402;-58
2021/01/19 12:41:39;;;;;;;11.30;2.22;;;9.10;95.70;;;;;;4987817;28;20042;-59
2021/01/19 12:44:05;;;;;;;10.93;2.55;;;9.10;95.70;;;;;;4992578;28;20039;-58
2021/01/19 12:46:32;;;;;;;12.57;3.08;;;9.10;95.70;;;;;;4988071;28;20073;-59
2021/01/19 12:48:58;;;;;;;18.95;4.05;;;9.10;95.60;;;;;;4987766;28;20038;-58
2021/01/19 12:51:25;;;;;;;13.32;4.00;;;9.10;95.80;;;;;;4991414;28;20413;-60
2021/01/19 12:53:51;;;;;;;16.00;4.50;;;9.10;95.90;;;;;;4990863;28;20104;-59
2021/01/19 12:56:18;;;;;;;16.38;4.05;;;9.20;95.70;;;;;;4991379;28;20035;-58
2021/01/19 12:58:44;;;;;;;12.05;3.90;;;9.20;95.60;;;;;;4989688;28;20120;-59